Terminal Aerodrome Forecast
Issued by NWS Wilmington, NC

Current Version | Previous Version | Text Only | Print | Product List | Glossary On
Versions: 1 2 3 4 5 6 7 8 9 10 11 12 13 14 15 16 17 18 19 20 21 22
870
FTUS42 KILM 290520
TAFLBT
TAF
KLBT 290520Z 2906/3006 36008KT P6SM BKN060
     FM291600 04009KT P6SM FEW250
     FM300500 09006KT P6SM SCT050=

USA.gov is the U.S. government's official web portal to all federal, state and local government web resources and services.